Time;durP1;ratioP1;P1;durP2;ratioP2;P2;SDS_P1;SDS_P2;PMS_P1;PMS_P2;Temp;Humidity;BMP_temperature;BMP_pressure;BME280_temperature;BME280_humidity;BME280_pressure;Samples;Min_cycle;Max_cycle;Signal;HPM_P1;HPM_P2
2021/01/17 00:00:52;;;;;;;28.38;16.23;;;-0.40;99.90;;;;;;5088772;28;20024;-78
2021/01/17 00:03:18;;;;;;;28.92;15.93;;;-0.40;99.90;;;;;;5071204;28;20101;-79
2021/01/17 00:05:46;;;;;;;30.30;15.68;;;-0.40;99.90;;;;;;5085843;28;20024;-78
2021/01/17 00:08:12;;;;;;;27.65;15.50;;;-0.40;99.90;;;;;;5082585;28;20039;-78
2021/01/17 00:10:38;;;;;;;30.90;16.92;;;-0.40;99.90;;;;;;5077369;28;20528;-79
2021/01/17 00:13:07;;;;;;;27.77;16.35;;;-0.40;99.90;;;;;;5090681;28;20031;-79
2021/01/17 00:15:36;;;;;;;27.63;16.30;;;-0.30;99.90;;;;;;4735021;28;10000516;-79
2021/01/17 00:18:02;;;;;;;31.38;17.65;;;-0.30;99.90;;;;;;5066414;28;20035;-79
2021/01/17 00:20:30;;;;;;;31.23;17.90;;;-0.40;99.90;;;;;;5088570;28;20046;-79
2021/01/17 00:23:07;;;;;;;30.50;16.88;;;-0.40;99.90;;;;;;5087496;28;20028;-79
2021/01/17 00:25:38;;;;;;;33.00;17.88;;;-0.30;99.90;;;;;;5082955;28;20028;-79
2021/01/17 00:28:07;;;;;;;29.83;17.73;;;-0.30;99.90;;;;;;5071075;28;20749;-79
2021/01/17 00:30:33;;;;;;;28.00;16.73;;;-0.30;99.90;;;;;;5084964;28;20087;-79
2021/01/17 00:33:03;;;;;;;31.50;17.55;;;-0.30;99.90;;;;;;5087894;28;20091;-79
2021/01/17 00:35:32;;;;;;;33.03;18.73;;;-0.30;99.90;;;;;;5088372;28;20024;-79
2021/01/17 00:37:59;;;;;;;38.17;21.30;;;-0.30;99.90;;;;;;5089596;28;20749;-79
2021/01/17 00:40:30;;;;;;;38.70;22.45;;;-0.30;99.90;;;;;;5087513;28;20118;-79
2021/01/17 00:42:56;;;;;;;34.92;19.75;;;-0.30;99.90;;;;;;5092908;28;20046;-79
2021/01/17 00:45:25;;;;;;;34.70;20.38;;;-0.40;99.90;;;;;;5086671;28;20029;-80
2021/01/17 00:47:55;;;;;;;35.53;19.77;;;-0.30;99.90;;;;;;5091145;28;20072;-79
2021/01/17 00:50:21;;;;;;;40.85;22.15;;;-0.30;99.90;;;;;;5088070;28;20472;-79
2021/01/17 00:52:56;;;;;;;33.63;19.48;;;-0.30;99.90;;;;;;5093571;28;20032;-79
2021/01/17 00:55:22;;;;;;;43.00;23.33;;;-0.30;99.90;;;;;;5093224;28;20028;-78
2021/01/17 00:57:50;;;;;;;33.10;18.73;;;-0.40;99.90;;;;;;5087130;28;20028;-79
2021/01/17 01:00:18;;;;;;;32.38;18.45;;;-0.40;99.90;;;;;;5071481;28;20040;-79
2021/01/17 01:02:47;;;;;;;29.83;17.58;;;-0.30;99.90;;;;;;5059652;28;20036;-79
2021/01/17 01:05:13;;;;;;;36.92;21.05;;;-0.30;99.90;;;;;;5094501;28;20111;-79
2021/01/17 01:07:39;;;;;;;40.33;21.67;;;-0.30;99.90;;;;;;5087216;28;20023;-79
2021/01/17 01:10:06;;;;;;;33.53;19.83;;;-0.40;99.90;;;;;;5088564;28;20028;-79
2021/01/17 01:12:36;;;;;;;33.80;19.10;;;-0.40;99.90;;;;;;5088725;28;20481;-79
2021/01/17 01:15:04;;;;;;;32.17;19.10;;;-0.40;99.90;;;;;;5091528;28;20034;-78
2021/01/17 01:17:35;;;;;;;35.33;19.30;;;-0.40;99.90;;;;;;5061186;28;20466;-79
2021/01/17 01:20:01;;;;;;;34.80;19.80;;;-0.40;99.90;;;;;;5093282;28;20016;-78
2021/01/17 01:22:29;;;;;;;36.55;20.65;;;-0.30;99.90;;;;;;5089600;28;20032;-78
2021/01/17 01:24:55;;;;;;;37.97;21.77;;;-0.30;99.90;;;;;;5088452;28;20094;-79
2021/01/17 01:27:20;;;;;;;39.08;21.55;;;-0.30;99.90;;;;;;5090084;28;20495;-78
2021/01/17 01:29:46;;;;;;;36.38;20.85;;;-0.40;99.90;;;;;;5088334;28;20215;-79
2021/01/17 01:32:16;;;;;;;31.95;18.85;;;-0.40;99.90;;;;;;5086676;28;20035;-78
2021/01/17 01:34:42;;;;;;;35.17;20.75;;;-0.40;99.90;;;;;;5087882;28;20028;-79
2021/01/17 01:37:12;;;;;;;40.10;22.58;;;-0.40;99.90;;;;;;5089033;28;20042;-78
2021/01/17 01:39:38;;;;;;;42.00;22.58;;;-0.40;99.90;;;;;;5090786;28;20032;-78
2021/01/17 01:42:05;;;;;;;36.65;21.52;;;-0.40;99.90;;;;;;5092172;28;20019;-78
2021/01/17 01:44:30;;;;;;;32.30;19.15;;;-0.40;99.90;;;;;;5088323;28;20036;-78
2021/01/17 01:46:58;;;;;;;37.35;20.65;;;-0.40;99.90;;;;;;5089907;28;20058;-78
2021/01/17 01:49:29;;;;;;;35.30;21.13;;;-0.40;99.90;;;;;;5087791;28;20361;-78
2021/01/17 01:52:03;;;;;;;38.42;21.65;;;-0.40;99.90;;;;;;5087430;28;20563;-79
2021/01/17 01:54:31;;;;;;;41.65;22.83;;;-0.40;99.90;;;;;;5077019;28;20134;-79
2021/01/17 01:56:59;;;;;;;34.10;20.25;;;-0.40;99.90;;;;;;5074976;28;20028;-79
2021/01/17 01:59:28;;;;;;;32.53;19.45;;;-0.40;99.90;;;;;;5090209;28;20078;-79
2021/01/17 02:01:54;;;;;;;30.83;18.40;;;-0.30;99.90;;;;;;5089380;28;20036;-79
2021/01/17 02:04:22;;;;;;;31.02;18.70;;;-0.30;99.90;;;;;;5089380;28;20664;-78
2021/01/17 02:07:21;;;;;;;35.30;21.35;;;-0.30;99.90;;;;;;5086880;28;20557;-79
2021/01/17 02:09:47;;;;;;;35.00;20.73;;;-0.30;99.90;;;;;;5077660;28;20024;-78
2021/01/17 02:12:28;;;;;;;39.97;22.45;;;-0.30;99.90;;;;;;5073361;28;20032;-79
2021/01/17 02:15:01;;;;;;;41.90;22.90;;;-0.30;99.90;;;;;;5083152;28;20028;-79
2021/01/17 02:17:28;;;;;;;34.42;19.95;;;-0.40;99.90;;;;;;5086545;28;20415;-78
2021/01/17 02:20:05;;;;;;;35.33;20.42;;;-0.40;99.90;;;;;;5082191;28;20094;-79
2021/01/17 02:23:10;;;;;;;33.83;19.95;;;-0.30;99.90;;;;;;5089567;28;20043;-78
2021/01/17 02:25:40;;;;;;;37.15;20.65;;;-0.40;99.90;;;;;;5051453;28;20040;-78
2021/01/17 02:28:10;;;;;;;36.38;21.25;;;-0.40;99.90;;;;;;5087092;28;20124;-78
2021/01/17 02:30:39;;;;;;;42.33;23.85;;;-0.40;99.90;;;;;;5085798;28;20593;-78
2021/01/17 02:33:07;;;;;;;41.92;23.17;;;-0.40;99.90;;;;;;5069630;28;20024;-78
2021/01/17 02:35:35;;;;;;;35.88;20.65;;;-0.40;99.90;;;;;;5073179;28;20215;-79
2021/01/17 02:38:15;;;;;;;38.25;21.25;;;-0.50;99.90;;;;;;5066766;28;20438;-79
2021/01/17 02:40:55;;;;;;;39.35;21.50;;;-0.50;99.90;;;;;;5086901;28;20449;-78
2021/01/17 02:43:24;;;;;;;39.45;22.60;;;-0.50;99.90;;;;;;5060155;28;20093;-78
2021/01/17 02:45:52;;;;;;;37.90;22.35;;;-0.50;99.90;;;;;;5077808;28;20024;-78
2021/01/17 02:48:20;;;;;;;34.88;20.23;;;-0.50;99.90;;;;;;5078186;28;20035;-79
2021/01/17 02:50:48;;;;;;;32.85;18.60;;;-0.50;99.90;;;;;;5075467;28;20028;-79
2021/01/17 02:53:39;;;;;;;41.08;22.58;;;-0.50;99.90;;;;;;5077467;28;20099;-79
2021/01/17 02:56:09;;;;;;;34.20;20.35;;;-0.40;99.90;;;;;;5072787;28;20024;-78
2021/01/17 02:58:38;;;;;;;39.58;22.20;;;-0.40;99.90;;;;;;5049403;28;20179;-78
2021/01/17 03:01:06;;;;;;;40.25;22.05;;;-0.50;99.90;;;;;;5071616;28;20035;-78
2021/01/17 03:03:35;;;;;;;42.38;23.20;;;-0.50;99.90;;;;;;5059480;28;20545;-79
2021/01/17 03:06:03;;;;;;;41.75;22.92;;;-0.50;99.90;;;;;;5070544;28;20026;-78
2021/01/17 03:08:29;;;;;;;43.47;23.55;;;-0.60;99.90;;;;;;5070689;28;20031;-78
2021/01/17 03:10:54;;;;;;;41.10;23.05;;;-0.50;99.90;;;;;;5075598;28;20023;-79
2021/01/17 03:13:21;;;;;;;41.83;22.45;;;-0.60;99.90;;;;;;5078844;28;20110;-78
2021/01/17 03:15:49;;;;;;;41.70;22.58;;;-0.60;99.90;;;;;;5077016;28;20363;-78
2021/01/17 03:18:15;;;;;;;47.05;25.80;;;-0.50;99.90;;;;;;5074941;28;20102;-79
2021/01/17 03:20:48;;;;;;;45.72;25.38;;;-0.60;99.90;;;;;;5079249;28;20149;-78
2021/01/17 03:23:13;;;;;;;43.85;23.83;;;-0.60;99.90;;;;;;5077713;28;20036;-78
2021/01/17 03:25:41;;;;;;;43.88;23.08;;;-0.60;99.90;;;;;;5077641;27;20027;-79
2021/01/17 03:28:09;;;;;;;48.63;24.98;;;-0.50;99.90;;;;;;5075411;28;20035;-78
2021/01/17 03:30:35;;;;;;;39.67;21.33;;;-0.50;99.90;;;;;;5084429;28;20044;-78
2021/01/17 03:33:03;;;;;;;45.50;23.90;;;-0.50;99.90;;;;;;5086270;28;20024;-79
2021/01/17 03:35:31;;;;;;;37.63;21.42;;;-0.50;99.90;;;;;;5092239;28;20055;-79
2021/01/17 03:37:56;;;;;;;43.90;23.45;;;-0.40;99.90;;;;;;5077910;28;20065;-78
2021/01/17 03:40:27;;;;;;;36.42;20.92;;;-0.50;99.90;;;;;;5076114;28;20032;-79
2021/01/17 03:42:56;;;;;;;38.28;21.88;;;-0.50;99.90;;;;;;5071130;28;20377;-79
2021/01/17 03:45:21;;;;;;;48.78;24.60;;;-0.50;99.90;;;;;;5077277;28;20089;-79
2021/01/17 03:47:47;;;;;;;42.67;22.80;;;-0.50;99.90;;;;;;5078850;28;20042;-79
2021/01/17 03:50:13;;;;;;;52.67;25.90;;;-0.50;99.90;;;;;;5076594;28;20056;-79
2021/01/17 03:52:41;;;;;;;43.97;23.42;;;-0.50;99.90;;;;;;5088751;28;20411;-79
2021/01/17 03:55:10;;;;;;;46.55;24.38;;;-0.50;99.90;;;;;;5089652;28;20045;-79
2021/01/17 03:57:35;;;;;;;51.45;26.55;;;-0.50;99.90;;;;;;5076069;28;20694;-79
2021/01/17 04:00:05;;;;;;;45.55;23.33;;;-0.50;99.90;;;;;;5088137;28;20039;-79
2021/01/17 04:02:31;;;;;;;44.97;22.40;;;-0.50;99.90;;;;;;5087901;28;20032;-79
2021/01/17 04:04:56;;;;;;;47.75;24.13;;;-0.50;99.90;;;;;;5090977;28;20031;-79
2021/01/17 04:07:23;;;;;;;43.30;22.60;;;-0.40;99.90;;;;;;5076672;28;20048;-79
2021/01/17 04:09:48;;;;;;;43.28;22.85;;;-0.50;99.90;;;;;;5078788;28;20485;-79
2021/01/17 04:12:17;;;;;;;45.70;23.65;;;-0.40;99.90;;;;;;5078611;28;20527;-78
2021/01/17 04:14:42;;;;;;;45.65;24.42;;;-0.40;99.90;;;;;;5087262;28;20020;-79
2021/01/17 04:17:08;;;;;;;59.80;28.13;;;-0.40;99.90;;;;;;5090922;28;20032;-78
2021/01/17 04:19:36;;;;;;;39.83;22.65;;;-0.40;99.90;;;;;;5064275;28;20056;-78
2021/01/17 04:22:01;;;;;;;49.88;24.60;;;-0.40;99.90;;;;;;5073905;28;20028;-79
2021/01/17 04:24:29;;;;;;;50.80;24.58;;;-0.40;99.90;;;;;;5065395;28;20082;-78
2021/01/17 04:27:02;;;;;;;45.00;23.45;;;-0.40;99.90;;;;;;5076119;28;20489;-78
2021/01/17 04:29:30;;;;;;;48.10;23.92;;;-0.40;99.90;;;;;;5075892;28;20050;-79
2021/01/17 04:31:58;;;;;;;46.97;23.25;;;-0.40;99.90;;;;;;5069693;28;20028;-79
2021/01/17 04:34:27;;;;;;;52.05;25.90;;;-0.40;99.90;;;;;;5078623;28;20028;-79
2021/01/17 04:36:55;;;;;;;43.60;23.42;;;-0.40;99.90;;;;;;5076650;28;20025;-79
2021/01/17 04:39:23;;;;;;;49.30;25.23;;;-0.50;99.90;;;;;;5077142;28;20052;-79
2021/01/17 04:41:50;;;;;;;48.47;24.42;;;-0.50;99.90;;;;;;5076875;28;20040;-78
2021/01/17 04:44:22;;;;;;;47.88;24.80;;;-0.40;99.90;;;;;;5066573;28;20054;-79
2021/01/17 04:46:50;;;;;;;40.67;20.92;;;-0.40;99.90;;;;;;5076100;28;20092;-79
2021/01/17 04:49:19;;;;;;;49.15;23.98;;;-0.40;99.90;;;;;;5090444;28;20040;-78
2021/01/17 04:51:47;;;;;;;48.75;24.70;;;-0.50;99.90;;;;;;5089774;28;20027;-78
2021/01/17 04:54:13;;;;;;;49.20;24.73;;;-0.40;99.90;;;;;;5076267;28;20057;-79
2021/01/17 04:56:45;;;;;;;54.33;25.80;;;-0.40;99.90;;;;;;5087413;28;20627;-79
2021/01/17 04:59:14;;;;;;;46.85;23.70;;;-0.40;99.90;;;;;;5089469;28;20023;-78
2021/01/17 05:01:52;;;;;;;59.90;27.40;;;-0.40;99.90;;;;;;5075638;28;20070;-78
2021/01/17 05:04:41;;;;;;;45.50;22.65;;;-0.40;99.90;;;;;;5076520;28;20064;-79
2021/01/17 05:07:16;;;;;;;46.90;22.95;;;-0.40;99.90;;;;;;5075787;28;20051;-79
2021/01/17 05:09:50;;;;;;;46.25;23.00;;;-0.40;99.90;;;;;;5086107;28;20039;-78
2021/01/17 05:12:18;;;;;;;53.33;24.77;;;-0.50;99.90;;;;;;5088666;28;20500;-79
2021/01/17 05:14:56;;;;;;;51.22;25.55;;;-0.50;99.90;;;;;;5093656;28;20360;-79
2021/01/17 05:17:25;;;;;;;52.95;25.58;;;-0.40;99.90;;;;;;5076578;28;20118;-79
2021/01/17 05:19:53;;;;;;;51.45;24.33;;;-0.40;99.90;;;;;;5087056;28;20024;-79
2021/01/17 05:22:26;;;;;;;48.80;23.40;;;-0.40;99.90;;;;;;5076949;28;20563;-79
2021/01/17 05:24:51;;;;;;;;;;;-0.40;99.90;;;;;;5075607;28;20570;-79
2021/01/17 05:27:22;;;;;;;43.03;22.15;;;-0.50;99.90;;;;;;5076285;28;19908;-78
2021/01/17 05:29:52;;;;;;;47.60;23.63;;;-0.50;99.90;;;;;;5084797;28;20361;-79
2021/01/17 05:32:21;;;;;;;46.97;23.33;;;-0.50;99.90;;;;;;5070645;28;20436;-79
2021/01/17 05:34:47;;;;;;;43.33;21.17;;;-0.40;99.90;;;;;;5052202;28;20097;-79
2021/01/17 05:37:13;;;;;;;36.25;19.27;;;-0.40;99.90;;;;;;5075188;28;21755;-79
2021/01/17 05:39:56;;;;;;;44.25;21.98;;;-0.40;99.90;;;;;;5075603;28;20039;-79
2021/01/17 05:42:23;;;;;;;42.20;21.60;;;-0.40;99.90;;;;;;5083252;28;20063;-79
2021/01/17 05:44:51;;;;;;;40.85;20.52;;;-0.40;99.90;;;;;;5088571;28;20111;-79
2021/01/17 05:47:25;;;;;;;41.83;20.83;;;-0.40;99.90;;;;;;5075148;28;20081;-79
2021/01/17 05:49:53;;;;;;;42.35;21.45;;;-0.30;99.90;;;;;;5065409;28;20024;-79
2021/01/17 05:52:19;;;;;;;40.88;21.00;;;-0.30;99.90;;;;;;5074505;28;20100;-79
2021/01/17 05:54:51;;;;;;;40.42;19.48;;;-0.30;99.90;;;;;;5085391;28;20070;-79
2021/01/17 05:57:23;;;;;;;43.78;22.23;;;-0.30;99.90;;;;;;5091029;28;20084;-79
2021/01/17 05:59:49;;;;;;;44.15;22.35;;;-0.30;99.90;;;;;;5087845;28;20048;-79
2021/01/17 06:02:21;;;;;;;37.15;19.38;;;-0.30;99.90;;;;;;5087721;28;20023;-79
2021/01/17 06:05:02;;;;;;;39.03;20.10;;;-0.30;99.90;;;;;;5068477;28;21987;-80
2021/01/17 06:07:32;;;;;;;44.38;21.92;;;-0.30;99.90;;;;;;5087767;28;20051;-79
2021/01/17 06:10:01;;;;;;;39.63;21.42;;;-0.30;99.90;;;;;;5078420;28;20039;-79
2021/01/17 06:12:39;;;;;;;40.53;21.85;;;-0.30;99.90;;;;;;5090554;28;20083;-79
2021/01/17 06:15:14;;;;;;;42.15;21.65;;;-0.30;99.90;;;;;;5075346;28;20035;-79
2021/01/17 06:17:51;;;;;;;40.65;20.52;;;-0.30;99.90;;;;;;5084975;28;20026;-79
2021/01/17 06:20:22;;;;;;;32.38;17.83;;;-0.30;99.90;;;;;;5079068;28;20069;-79
2021/01/17 06:22:48;;;;;;;35.20;17.73;;;-0.30;99.90;;;;;;5076507;28;20037;-79
2021/01/17 06:25:16;;;;;;;37.22;18.98;;;-0.30;99.90;;;;;;5067719;28;20475;-79
2021/01/17 06:27:42;;;;;;;46.92;22.35;;;-0.30;99.90;;;;;;5073818;28;20055;-79
2021/01/17 06:30:20;;;;;;;36.95;19.25;;;-0.40;99.90;;;;;;5080502;28;20029;-79
2021/01/17 06:32:48;;;;;;;35.53;18.45;;;-0.30;99.90;;;;;;5073448;28;20032;-79
2021/01/17 06:35:16;;;;;;;35.20;18.63;;;-0.40;99.90;;;;;;5075928;28;20032;-79
2021/01/17 06:37:42;;;;;;;35.70;19.70;;;-0.40;99.90;;;;;;5086713;28;20107;-79
2021/01/17 06:40:08;;;;;;;31.70;17.52;;;-0.40;99.90;;;;;;5090303;28;20051;-79
2021/01/17 06:42:36;;;;;;;37.85;19.98;;;-0.30;99.90;;;;;;5086578;28;20507;-79
2021/01/17 06:45:02;;;;;;;39.33;20.40;;;-0.30;99.90;;;;;;5086111;28;20036;-79
2021/01/17 06:47:28;;;;;;;36.42;19.25;;;-0.30;99.90;;;;;;5060035;28;20032;-79
2021/01/17 06:49:55;;;;;;;36.38;19.63;;;-0.30;99.90;;;;;;5073558;28;20081;-79
2021/01/17 06:52:25;;;;;;;37.05;20.00;;;-0.30;99.90;;;;;;5072883;28;20709;-79
2021/01/17 06:54:51;;;;;;;38.78;20.20;;;-0.30;99.90;;;;;;5074848;28;21943;-79
2021/01/17 06:57:18;;;;;;;35.17;18.75;;;-0.20;99.90;;;;;;5055949;28;20028;-79
2021/01/17 06:59:50;;;;;;;38.03;20.23;;;-0.30;99.90;;;;;;5073871;28;20452;-79
2021/01/17 07:02:28;;;;;;;38.45;20.27;;;-0.30;99.90;;;;;;5085638;28;20103;-79
2021/01/17 07:04:56;;;;;;;35.58;18.95;;;-0.30;99.90;;;;;;5085015;28;20042;-79
2021/01/17 07:07:37;;;;;;;34.60;19.00;;;-0.30;99.90;;;;;;5074787;28;20029;-80
2021/01/17 07:10:06;;;;;;;31.77;17.20;;;-0.30;99.90;;;;;;5079783;28;20028;-79
2021/01/17 07:12:55;;;;;;;36.33;19.42;;;-0.20;99.90;;;;;;5074349;28;20028;-79
2021/01/17 07:15:33;;;;;;;33.42;19.38;;;-0.20;99.90;;;;;;5068178;28;20020;-79
2021/01/17 07:18:05;;;;;;;36.60;19.40;;;-0.20;99.90;;;;;;5073078;28;20020;-79
2021/01/17 07:20:52;;;;;;;33.45;18.85;;;-0.20;99.90;;;;;;5074268;28;20047;-79
2021/01/17 07:23:23;;;;;;;32.00;18.77;;;-0.20;99.90;;;;;;5073615;28;20048;-79
2021/01/17 07:25:49;;;;;;;36.10;18.58;;;-0.20;99.90;;;;;;5085719;28;20035;-79
2021/01/17 07:28:20;;;;;;;34.45;19.02;;;-0.20;99.90;;;;;;5080850;28;20056;-79
2021/01/17 07:31:01;;;;;;;35.33;19.47;;;-0.20;99.90;;;;;;5074687;28;20051;-79
2021/01/17 07:33:35;;;;;;;34.45;19.83;;;-0.20;99.90;;;;;;5089113;28;20039;-79
2021/01/17 07:36:07;;;;;;;38.42;21.23;;;-0.20;99.90;;;;;;5089104;28;20036;-79
2021/01/17 07:38:37;;;;;;;39.72;21.95;;;-0.20;99.90;;;;;;5079246;28;20036;-79
2021/01/17 07:41:02;;;;;;;34.13;19.50;;;-0.20;99.90;;;;;;5059587;28;20038;-79
2021/01/17 07:43:37;;;;;;;38.10;21.15;;;-0.20;99.90;;;;;;5077607;28;20036;-79
2021/01/17 07:46:12;;;;;;;31.63;18.20;;;-0.20;99.90;;;;;;5078158;28;20052;-79
2021/01/17 07:48:41;;;;;;;34.35;19.88;;;-0.20;99.90;;;;;;5079654;28;20451;-79
2021/01/17 07:51:11;;;;;;;38.58;20.25;;;-0.20;99.90;;;;;;5088193;28;20024;-79
2021/01/17 07:53:39;;;;;;;37.30;21.27;;;-0.20;99.90;;;;;;5088386;28;20028;-79
2021/01/17 07:56:27;;;;;;;35.45;19.92;;;-0.20;99.90;;;;;;5089318;28;20337;-79
2021/01/17 07:59:11;;;;;;;34.55;19.27;;;-0.20;99.90;;;;;;5088135;28;20031;-79
2021/01/17 08:01:40;;;;;;;37.00;20.58;;;-0.20;99.90;;;;;;5090554;28;20107;-79
2021/01/17 08:04:05;;;;;;;39.13;20.27;;;-0.20;99.90;;;;;;5090813;28;20123;-79
2021/01/17 08:06:37;;;;;;;34.03;18.65;;;-0.20;99.90;;;;;;5080326;28;20141;-79
2021/01/17 08:09:03;;;;;;;25.25;14.60;;;-0.20;99.90;;;;;;5076280;28;20071;-79
2021/01/17 08:11:48;;;;;;;38.40;21.15;;;-0.20;99.90;;;;;;5075518;28;20043;-78
2021/01/17 08:14:17;;;;;;;40.13;21.13;;;-0.20;99.90;;;;;;5075860;28;20070;-78
2021/01/17 08:17:12;;;;;;;33.28;19.27;;;-0.20;99.90;;;;;;5075498;28;20067;-78
2021/01/17 08:20:00;;;;;;;40.88;22.02;;;-0.10;99.90;;;;;;5089549;28;20104;-78
2021/01/17 08:22:25;;;;;;;38.72;21.33;;;-0.10;99.90;;;;;;5082127;28;20688;-79
2021/01/17 08:25:00;;;;;;;39.22;21.92;;;-0.10;99.90;;;;;;5082295;28;20052;-79
2021/01/17 08:27:32;;;;;;;35.53;20.95;;;-0.10;99.90;;;;;;5054004;28;20051;-79
2021/01/17 08:30:01;;;;;;;30.20;17.35;;;-0.10;99.90;;;;;;5076766;28;20171;-79
2021/01/17 08:32:36;;;;;;;39.15;21.25;;;-0.10;99.90;;;;;;5076266;28;20110;-79
2021/01/17 08:35:14;;;;;;;41.83;22.60;;;-0.10;99.90;;;;;;5076814;28;20050;-79
2021/01/17 08:38:08;;;;;;;39.00;20.77;;;-0.10;99.90;;;;;;5086474;28;20048;-79
2021/01/17 08:40:34;;;;;;;39.03;20.83;;;-0.10;99.90;;;;;;5083694;28;20028;-79
2021/01/17 08:43:07;;;;;;;38.42;21.58;;;-0.10;99.90;;;;;;5076378;28;20042;-79
2021/01/17 08:45:33;;;;;;;38.05;20.50;;;-0.10;99.90;;;;;;5081764;28;20036;-79
2021/01/17 08:48:19;;;;;;;37.03;20.73;;;0.00;99.90;;;;;;5090611;28;20069;-79
2021/01/17 08:50:45;;;;;;;31.15;18.73;;;0.00;99.90;;;;;;5078260;28;20530;-79
2021/01/17 08:53:29;;;;;;;43.60;23.25;;;0.00;99.90;;;;;;5086821;28;20090;-79
2021/01/17 08:55:59;;;;;;;39.17;21.95;;;0.00;99.90;;;;;;5092974;28;20039;-79
2021/01/17 08:58:25;;;;;;;39.72;22.83;;;0.00;99.90;;;;;;5050297;28;20066;-79
2021/01/17 09:00:51;;;;;;;35.97;21.40;;;0.10;99.90;;;;;;5078671;28;20480;-79
2021/01/17 09:03:23;;;;;;;37.75;21.05;;;0.10;99.90;;;;;;5075894;28;20155;-79
2021/01/17 09:05:50;;;;;;;40.97;22.40;;;0.10;99.90;;;;;;5075890;28;20034;-79
2021/01/17 09:08:16;;;;;;;38.70;21.98;;;0.10;99.90;;;;;;5074190;28;20544;-79
2021/01/17 09:10:46;;;;;;;39.97;22.05;;;0.10;99.90;;;;;;5051840;28;20456;-79
2021/01/17 09:13:31;;;;;;;40.10;21.90;;;0.10;99.90;;;;;;5078535;28;20101;-79
2021/01/17 09:16:06;;;;;;;35.80;20.40;;;0.10;99.90;;;;;;5076312;28;20040;-79
2021/01/17 09:18:35;;;;;;;38.65;22.02;;;0.10;99.90;;;;;;5077721;28;20586;-79
2021/01/17 09:21:03;;;;;;;40.60;22.30;;;0.10;99.90;;;;;;5069979;28;20036;-79
2021/01/17 09:23:30;;;;;;;40.25;22.70;;;0.10;99.90;;;;;;5075138;28;20088;-79
2021/01/17 09:25:57;;;;;;;37.90;22.13;;;0.10;99.90;;;;;;5073686;28;20614;-79
2021/01/17 09:28:25;;;;;;;39.08;22.77;;;0.10;99.90;;;;;;5073919;28;20365;-80
2021/01/17 09:30:53;;;;;;;41.00;22.73;;;0.20;99.90;;;;;;5052359;28;20024;-79
2021/01/17 09:33:21;;;;;;;40.35;22.65;;;0.20;99.90;;;;;;5080820;28;20020;-79
2021/01/17 09:35:47;;;;;;;37.70;21.55;;;0.20;99.90;;;;;;5088835;28;20111;-80
2021/01/17 09:38:18;;;;;;;40.67;22.38;;;0.20;99.90;;;;;;5077843;28;20039;-79
2021/01/17 09:40:45;;;;;;;37.38;20.98;;;0.20;99.90;;;;;;5058123;28;20132;-79
2021/01/17 09:43:11;;;;;;;36.30;21.63;;;0.20;99.90;;;;;;5074748;28;20040;-79
2021/01/17 09:45:40;;;;;;;33.13;20.15;;;0.30;99.90;;;;;;5063604;28;20035;-79
2021/01/17 09:48:06;;;;;;;40.63;22.13;;;0.30;99.90;;;;;;5077021;28;20031;-80
2021/01/17 09:50:37;;;;;;;39.40;21.83;;;0.30;99.90;;;;;;5079617;28;20052;-80
2021/01/17 09:53:07;;;;;;;38.95;22.52;;;0.30;99.90;;;;;;5065286;28;20025;-79
2021/01/17 09:55:34;;;;;;;40.55;22.40;;;0.30;99.90;;;;;;5078601;28;20024;-80
2021/01/17 09:58:04;;;;;;;39.78;22.13;;;0.30;99.90;;;;;;5090180;28;20658;-80
2021/01/17 10:00:32;;;;;;;41.47;23.48;;;0.30;99.90;;;;;;5078280;28;20024;-80
2021/01/17 10:03:00;;;;;;;42.15;24.17;;;0.30;99.90;;;;;;5074535;28;20039;-78
2021/01/17 10:05:27;;;;;;;40.67;22.50;;;0.30;99.90;;;;;;5065898;28;20030;-79
2021/01/17 10:08:06;;;;;;;45.60;24.95;;;0.30;99.90;;;;;;5087804;28;20066;-79
2021/01/17 10:10:33;;;;;;;48.13;25.13;;;0.40;99.90;;;;;;5076586;28;20467;-78
2021/01/17 10:13:01;;;;;;;37.47;21.80;;;0.40;99.90;;;;;;5087127;28;20020;-79
2021/01/17 10:15:27;;;;;;;42.22;23.67;;;0.40;99.90;;;;;;5087098;28;20046;-78
2021/01/17 10:17:58;;;;;;;38.08;21.45;;;0.40;99.90;;;;;;5065923;28;20020;-79
2021/01/17 10:20:27;;;;;;;42.97;23.23;;;0.50;99.90;;;;;;5088755;28;20031;-78
2021/01/17 10:22:59;;;;;;;;;;;0.50;99.90;;;;;;4382188;28;10000775;-78
2021/01/17 10:25:25;;;;;;;38.30;22.08;;;0.50;99.90;;;;;;5072526;28;20057;-80
2021/01/17 10:27:57;;;;;;;39.15;22.50;;;0.50;99.90;;;;;;5055717;28;20149;-80
2021/01/17 10:30:23;;;;;;;39.60;21.70;;;0.50;99.90;;;;;;5078280;28;20150;-80
2021/01/17 10:32:50;;;;;;;35.75;20.13;;;0.60;99.90;;;;;;5055171;28;20086;-80
2021/01/17 10:35:26;;;;;;;37.55;22.10;;;0.60;99.90;;;;;;5076152;28;20776;-79
2021/01/17 10:37:52;;;;;;;40.60;22.80;;;0.70;99.90;;;;;;5072274;28;20043;-80
2021/01/17 10:40:28;;;;;;;39.58;22.48;;;0.60;99.90;;;;;;5072236;28;20036;-79
2021/01/17 10:42:55;;;;;;;40.72;23.02;;;0.70;99.90;;;;;;5074030;28;20031;-78
2021/01/17 10:45:23;;;;;;;36.20;21.77;;;0.70;99.90;;;;;;5063424;28;20029;-78
2021/01/17 10:47:59;;;;;;;37.88;21.98;;;0.80;99.90;;;;;;5072771;28;20051;-71
2021/01/17 10:50:25;;;;;;;44.20;24.38;;;0.80;99.90;;;;;;5039649;28;20145;-72
2021/01/17 10:53:18;;;;;;;39.72;22.35;;;0.80;99.90;;;;;;5066537;28;20025;-79
2021/01/17 10:55:48;;;;;;;43.58;23.13;;;0.90;99.90;;;;;;5053245;28;20067;-80
2021/01/17 10:58:17;;;;;;;48.83;26.40;;;0.90;99.90;;;;;;5067654;28;20024;-79
2021/01/17 11:00:55;;;;;;;42.08;23.65;;;0.90;99.90;;;;;;5071511;28;20028;-79
2021/01/17 11:03:37;;;;;;;39.97;21.45;;;1.00;99.90;;;;;;5073049;28;20052;-79
2021/01/17 11:06:23;;;;;;;46.08;25.17;;;0.90;99.90;;;;;;5066909;28;20111;-80
2021/01/17 11:08:55;;;;;;;43.75;24.73;;;0.90;99.90;;;;;;5074836;28;20048;-77
2021/01/17 11:11:30;;;;;;;;;;;0.90;99.90;;;;;;5093320;27;20088;-77
2021/01/17 11:14:01;;;;;;;46.92;25.98;;;0.90;99.90;;;;;;5076668;28;19919;-78
2021/01/17 11:16:42;;;;;;;51.65;26.73;;;0.90;99.90;;;;;;5067892;28;20066;-81
2021/01/17 11:19:09;;;;;;;47.15;24.88;;;0.90;99.90;;;;;;5077172;28;20757;-78
2021/01/17 11:21:37;;;;;;;48.15;25.83;;;0.90;99.90;;;;;;5067129;28;20039;-79
2021/01/17 11:24:08;;;;;;;47.13;24.75;;;1.00;99.90;;;;;;5058885;28;20126;-78
2021/01/17 11:26:37;;;;;;;43.63;25.00;;;1.00;99.90;;;;;;5080915;28;20024;-79
2021/01/17 11:29:05;;;;;;;50.40;26.65;;;1.10;99.90;;;;;;5077480;28;20132;-82
2021/01/17 11:31:31;;;;;;;46.30;24.83;;;1.10;99.90;;;;;;5078100;28;20028;-79
2021/01/17 11:33:57;;;;;;;47.40;25.77;;;1.20;99.90;;;;;;5070634;28;20109;-80
2021/01/17 11:36:28;;;;;;;46.22;26.02;;;1.20;99.90;;;;;;5076123;28;20070;-80
2021/01/17 11:38:54;;;;;;;46.40;25.73;;;1.20;99.90;;;;;;5076686;28;20035;-80
2021/01/17 11:41:34;;;;;;;48.53;28.33;;;1.30;99.90;;;;;;5078405;28;20028;-81
2021/01/17 11:44:09;;;;;;;44.40;24.48;;;1.30;99.90;;;;;;5076564;28;20024;-80
2021/01/17 11:46:35;;;;;;;48.17;26.70;;;1.30;99.90;;;;;;5073470;28;20139;-79
2021/01/17 11:49:06;;;;;;;40.35;23.55;;;1.30;99.90;;;;;;5074551;28;20451;-78
2021/01/17 11:51:32;;;;;;;45.83;26.25;;;1.40;99.90;;;;;;5061479;28;20070;-79
2021/01/17 11:54:19;;;;;;;44.35;25.27;;;1.40;99.90;;;;;;4727670;28;10000520;-79
2021/01/17 11:56:50;;;;;;;43.78;25.35;;;1.40;99.90;;;;;;5074925;28;20028;-79
2021/01/17 11:59:33;;;;;;;44.38;25.00;;;1.40;99.90;;;;;;5076783;28;20078;-79
2021/01/17 12:02:21;;;;;;;46.28;25.52;;;1.50;99.90;;;;;;5076901;28;20089;-78
2021/01/17 12:05:01;;;;;;;43.13;24.95;;;1.50;99.90;;;;;;5073594;28;20029;-80
2021/01/17 12:07:26;;;;;;;47.00;26.20;;;1.50;99.90;;;;;;5074634;28;20144;-79
2021/01/17 12:10:14;;;;;;;47.50;25.33;;;1.50;99.90;;;;;;5074065;28;20025;-76
2021/01/17 12:12:42;;;;;;;47.97;27.02;;;1.60;99.90;;;;;;5066431;28;20032;-72
2021/01/17 12:15:11;;;;;;;48.15;27.35;;;1.50;99.90;;;;;;5074337;28;20109;-78
2021/01/17 12:17:39;;;;;;;46.38;26.13;;;1.60;99.90;;;;;;5075770;28;20042;-80
2021/01/17 12:20:12;;;;;;;52.20;27.13;;;1.60;99.90;;;;;;5084003;28;20032;-78
2021/01/17 12:22:38;;;;;;;47.92;27.77;;;1.60;99.90;;;;;;5076093;28;20036;-78
2021/01/17 12:25:07;;;;;;;43.63;25.13;;;1.60;99.90;;;;;;5075566;28;20489;-78
2021/01/17 12:27:33;;;;;;;47.22;26.45;;;1.60;99.90;;;;;;5076038;28;20032;-78
2021/01/17 12:29:58;;;;;;;45.00;25.77;;;1.60;99.90;;;;;;5076175;28;20040;-78
2021/01/17 12:32:29;;;;;;;47.72;27.33;;;1.60;99.90;;;;;;5076887;28;20131;-78
2021/01/17 12:34:55;;;;;;;49.03;27.88;;;1.60;99.90;;;;;;5075234;28;20200;-79
2021/01/17 12:37:20;;;;;;;51.33;28.85;;;1.60;99.90;;;;;;5079497;28;20455;-78
2021/01/17 12:39:46;;;;;;;50.97;27.60;;;1.70;99.90;;;;;;5094045;28;20111;-78
2021/01/17 12:42:14;;;;;;;46.30;26.40;;;1.70;99.90;;;;;;5082177;28;20092;-78
2021/01/17 12:44:42;;;;;;;52.13;28.35;;;1.70;99.90;;;;;;5077861;28;20035;-78
2021/01/17 12:47:07;;;;;;;46.90;26.83;;;1.70;99.90;;;;;;5076380;28;20216;-78